sensor_id;sensor_type;location;lat;lon;timestamp;P1;durP1;ratioP1;P2;durP2;ratioP2
55314;SDS011;41619;42.816;23.226;2022-10-16T00:00:39;24.02;;;12.23;;
55314;SDS011;41619;42.816;23.226;2022-10-16T00:03:06;25.58;;;11.77;;
55314;SDS011;41619;42.816;23.226;2022-10-16T00:05:32;22.17;;;10.85;;
55314;SDS011;41619;42.816;23.226;2022-10-16T00:08:02;25.05;;;11.98;;
55314;SDS011;41619;42.816;23.226;2022-10-16T00:10:27;27.05;;;11.68;;
55314;SDS011;41619;42.816;23.226;2022-10-16T00:12:53;24.23;;;12.18;;
55314;SDS011;41619;42.816;23.226;2022-10-16T00:15:19;22.92;;;10.73;;
55314;SDS011;41619;42.816;23.226;2022-10-16T00:17:44;22.73;;;11.10;;
55314;SDS011;41619;42.816;23.226;2022-10-16T00:20:10;19.95;;;10.80;;
55314;SDS011;41619;42.816;23.226;2022-10-16T00:22:35;21.77;;;10.57;;
55314;SDS011;41619;42.816;23.226;2022-10-16T00:25:01;26.77;;;11.27;;
55314;SDS011;41619;42.816;23.226;2022-10-16T00:27:26;20.13;;;10.13;;
55314;SDS011;41619;42.816;23.226;2022-10-16T00:29:52;18.38;;;9.93;;
55314;SDS011;41619;42.816;23.226;2022-10-16T00:32:18;21.58;;;10.88;;
55314;SDS011;41619;42.816;23.226;2022-10-16T00:34:44;17.00;;;9.85;;
55314;SDS011;41619;42.816;23.226;2022-10-16T00:37:10;18.55;;;10.20;;
55314;SDS011;41619;42.816;23.226;2022-10-16T00:39:36;19.33;;;9.85;;
55314;SDS011;41619;42.816;23.226;2022-10-16T00:42:01;16.05;;;9.52;;
55314;SDS011;41619;42.816;23.226;2022-10-16T00:47:11;21.92;;;10.52;;
55314;SDS011;41619;42.816;23.226;2022-10-16T00:49:40;20.15;;;10.50;;
55314;SDS011;41619;42.816;23.226;2022-10-16T00:52:06;22.90;;;10.35;;
55314;SDS011;41619;42.816;23.226;2022-10-16T00:54:32;18.75;;;11.02;;
55314;SDS011;41619;42.816;23.226;2022-10-16T00:57:03;17.77;;;9.75;;
55314;SDS011;41619;42.816;23.226;2022-10-16T00:59:32;22.85;;;10.23;;
55314;SDS011;41619;42.816;23.226;2022-10-16T01:02:00;17.75;;;10.50;;
55314;SDS011;41619;42.816;23.226;2022-10-16T01:04:27;15.95;;;9.70;;
55314;SDS011;41619;42.816;23.226;2022-10-16T01:10:00;20.58;;;10.02;;
55314;SDS011;41619;42.816;23.226;2022-10-16T01:13:01;15.38;;;9.63;;
55314;SDS011;41619;42.816;23.226;2022-10-16T01:15:34;19.90;;;9.77;;
55314;SDS011;41619;42.816;23.226;2022-10-16T01:20:59;16.42;;;9.38;;
55314;SDS011;41619;42.816;23.226;2022-10-16T01:26:16;19.33;;;9.65;;
55314;SDS011;41619;42.816;23.226;2022-10-16T01:31:32;19.80;;;11.88;;
55314;SDS011;41619;42.816;23.226;2022-10-16T01:34:14;19.60;;;10.57;;
55314;SDS011;41619;42.816;23.226;2022-10-16T01:36:45;20.52;;;9.98;;
55314;SDS011;41619;42.816;23.226;2022-10-16T01:39:17;17.58;;;10.05;;
55314;SDS011;41619;42.816;23.226;2022-10-16T01:42:21;16.10;;;9.60;;
55314;SDS011;41619;42.816;23.226;2022-10-16T01:44:41;15.77;;;11.07;;
55314;SDS011;41619;42.816;23.226;2022-10-16T01:47:08;21.92;;;11.95;;
55314;SDS011;41619;42.816;23.226;2022-10-16T01:49:38;24.60;;;12.40;;
55314;SDS011;41619;42.816;23.226;2022-10-16T01:52:06;20.70;;;12.15;;
55314;SDS011;41619;42.816;23.226;2022-10-16T01:54:37;18.25;;;11.80;;
55314;SDS011;41619;42.816;23.226;2022-10-16T01:57:07;22.50;;;12.32;;
55314;SDS011;41619;42.816;23.226;2022-10-16T01:59:34;22.92;;;11.93;;
55314;SDS011;41619;42.816;23.226;2022-10-16T02:02:05;25.00;;;10.68;;
55314;SDS011;41619;42.816;23.226;2022-10-16T02:04:34;20.92;;;11.85;;
55314;SDS011;41619;42.816;23.226;2022-10-16T02:07:04;20.20;;;11.57;;
55314;SDS011;41619;42.816;23.226;2022-10-16T02:09:32;18.70;;;11.30;;
55314;SDS011;41619;42.816;23.226;2022-10-16T02:11:59;18.88;;;10.70;;
55314;SDS011;41619;42.816;23.226;2022-10-16T02:14:29;27.38;;;12.07;;
55314;SDS011;41619;42.816;23.226;2022-10-16T02:16:55;23.13;;;10.93;;
55314;SDS011;41619;42.816;23.226;2022-10-16T02:19:21;22.27;;;9.95;;
55314;SDS011;41619;42.816;23.226;2022-10-16T02:21:51;17.67;;;10.27;;
55314;SDS011;41619;42.816;23.226;2022-10-16T02:27:05;17.02;;;10.10;;
55314;SDS011;41619;42.816;23.226;2022-10-16T02:29:33;20.10;;;9.63;;
55314;SDS011;41619;42.816;23.226;2022-10-16T02:32:10;16.15;;;9.75;;
55314;SDS011;41619;42.816;23.226;2022-10-16T02:34:38;19.73;;;9.60;;
55314;SDS011;41619;42.816;23.226;2022-10-16T02:37:05;15.25;;;9.35;;
55314;SDS011;41619;42.816;23.226;2022-10-16T02:39:32;20.75;;;9.73;;
55314;SDS011;41619;42.816;23.226;2022-10-16T02:41:58;15.30;;;9.57;;
55314;SDS011;41619;42.816;23.226;2022-10-16T02:44:24;16.25;;;9.35;;
55314;SDS011;41619;42.816;23.226;2022-10-16T02:46:49;23.63;;;11.38;;
55314;SDS011;41619;42.816;23.226;2022-10-16T02:49:15;25.88;;;12.95;;
55314;SDS011;41619;42.816;23.226;2022-10-16T02:51:40;25.02;;;13.65;;
55314;SDS011;41619;42.816;23.226;2022-10-16T02:54:05;28.45;;;12.90;;
55314;SDS011;41619;42.816;23.226;2022-10-16T02:56:31;19.70;;;10.30;;
55314;SDS011;41619;42.816;23.226;2022-10-16T02:58:56;19.52;;;10.70;;
55314;SDS011;41619;42.816;23.226;2022-10-16T03:01:22;21.95;;;10.75;;
55314;SDS011;41619;42.816;23.226;2022-10-16T03:03:48;21.40;;;10.35;;
55314;SDS011;41619;42.816;23.226;2022-10-16T03:06:14;16.48;;;10.30;;
55314;SDS011;41619;42.816;23.226;2022-10-16T03:08:39;19.98;;;9.23;;
55314;SDS011;41619;42.816;23.226;2022-10-16T03:11:05;21.80;;;10.25;;
55314;SDS011;41619;42.816;23.226;2022-10-16T03:13:30;18.70;;;9.70;;
55314;SDS011;41619;42.816;23.226;2022-10-16T03:15:56;19.73;;;10.07;;
55314;SDS011;41619;42.816;23.226;2022-10-16T03:18:21;19.05;;;9.45;;
55314;SDS011;41619;42.816;23.226;2022-10-16T03:20:46;21.17;;;9.40;;
55314;SDS011;41619;42.816;23.226;2022-10-16T03:23:12;15.73;;;9.77;;
55314;SDS011;41619;42.816;23.226;2022-10-16T03:25:37;20.58;;;9.40;;
55314;SDS011;41619;42.816;23.226;2022-10-16T03:28:03;21.40;;;9.15;;
55314;SDS011;41619;42.816;23.226;2022-10-16T03:30:28;21.60;;;9.73;;
55314;SDS011;41619;42.816;23.226;2022-10-16T03:32:54;19.98;;;10.02;;
55314;SDS011;41619;42.816;23.226;2022-10-16T03:35:23;17.35;;;9.40;;
55314;SDS011;41619;42.816;23.226;2022-10-16T03:37:49;27.35;;;17.05;;
55314;SDS011;41619;42.816;23.226;2022-10-16T03:40:15;31.25;;;14.75;;
55314;SDS011;41619;42.816;23.226;2022-10-16T03:42:44;18.08;;;10.68;;
55314;SDS011;41619;42.816;23.226;2022-10-16T03:45:10;22.23;;;11.80;;
55314;SDS011;41619;42.816;23.226;2022-10-16T03:47:36;26.42;;;12.98;;
55314;SDS011;41619;42.816;23.226;2022-10-16T03:50:01;25.45;;;12.18;;
55314;SDS011;41619;42.816;23.226;2022-10-16T03:52:27;18.35;;;10.63;;
55314;SDS011;41619;42.816;23.226;2022-10-16T03:54:53;22.70;;;12.45;;
55314;SDS011;41619;42.816;23.226;2022-10-16T03:57:18;23.52;;;11.85;;
55314;SDS011;41619;42.816;23.226;2022-10-16T03:59:45;24.95;;;10.45;;
55314;SDS011;41619;42.816;23.226;2022-10-16T04:02:11;19.80;;;10.35;;
55314;SDS011;41619;42.816;23.226;2022-10-16T04:04:38;16.42;;;9.48;;
55314;SDS011;41619;42.816;23.226;2022-10-16T04:07:03;17.00;;;9.75;;
55314;SDS011;41619;42.816;23.226;2022-10-16T04:09:29;19.73;;;9.27;;
55314;SDS011;41619;42.816;23.226;2022-10-16T04:11:55;14.18;;;8.80;;
55314;SDS011;41619;42.816;23.226;2022-10-16T04:14:20;18.38;;;9.60;;
55314;SDS011;41619;42.816;23.226;2022-10-16T04:16:45;25.38;;;11.20;;
55314;SDS011;41619;42.816;23.226;2022-10-16T04:19:11;24.63;;;11.63;;
55314;SDS011;41619;42.816;23.226;2022-10-16T04:21:37;26.52;;;11.35;;
55314;SDS011;41619;42.816;23.226;2022-10-16T04:24:02;26.33;;;11.90;;
55314;SDS011;41619;42.816;23.226;2022-10-16T04:26:28;23.98;;;10.93;;
55314;SDS011;41619;42.816;23.226;2022-10-16T04:28:53;24.33;;;11.65;;
55314;SDS011;41619;42.816;23.226;2022-10-16T04:31:19;19.70;;;11.65;;
55314;SDS011;41619;42.816;23.226;2022-10-16T04:33:44;25.35;;;10.98;;
55314;SDS011;41619;42.816;23.226;2022-10-16T04:36:10;22.05;;;11.68;;
55314;SDS011;41619;42.816;23.226;2022-10-16T04:38:35;26.63;;;12.55;;
55314;SDS011;41619;42.816;23.226;2022-10-16T04:41:02;25.75;;;11.93;;
55314;SDS011;41619;42.816;23.226;2022-10-16T04:43:28;41.88;;;15.20;;
55314;SDS011;41619;42.816;23.226;2022-10-16T04:45:53;34.50;;;17.13;;
55314;SDS011;41619;42.816;23.226;2022-10-16T04:48:20;32.03;;;15.95;;
55314;SDS011;41619;42.816;23.226;2022-10-16T04:50:45;25.80;;;13.85;;
55314;SDS011;41619;42.816;23.226;2022-10-16T04:53:11;19.90;;;12.73;;
55314;SDS011;41619;42.816;23.226;2022-10-16T04:55:37;24.15;;;13.18;;
55314;SDS011;41619;42.816;23.226;2022-10-16T04:58:03;25.90;;;13.82;;
55314;SDS011;41619;42.816;23.226;2022-10-16T05:00:29;28.23;;;13.43;;
55314;SDS011;41619;42.816;23.226;2022-10-16T05:02:55;43.47;;;20.98;;
55314;SDS011;41619;42.816;23.226;2022-10-16T05:05:20;68.38;;;27.30;;
55314;SDS011;41619;42.816;23.226;2022-10-16T05:07:49;56.20;;;25.85;;
55314;SDS011;41619;42.816;23.226;2022-10-16T05:10:14;59.00;;;26.38;;
55314;SDS011;41619;42.816;23.226;2022-10-16T05:12:40;50.53;;;22.80;;
55314;SDS011;41619;42.816;23.226;2022-10-16T05:15:05;41.80;;;21.00;;
55314;SDS011;41619;42.816;23.226;2022-10-16T05:17:31;37.40;;;18.92;;
55314;SDS011;41619;42.816;23.226;2022-10-16T05:19:57;37.83;;;17.95;;
55314;SDS011;41619;42.816;23.226;2022-10-16T05:22:22;48.20;;;19.98;;
55314;SDS011;41619;42.816;23.226;2022-10-16T05:24:47;53.60;;;25.23;;
55314;SDS011;41619;42.816;23.226;2022-10-16T05:27:13;31.92;;;17.85;;
55314;SDS011;41619;42.816;23.226;2022-10-16T05:29:44;23.25;;;14.63;;
55314;SDS011;41619;42.816;23.226;2022-10-16T05:32:14;29.35;;;14.30;;
55314;SDS011;41619;42.816;23.226;2022-10-16T05:34:40;25.63;;;16.10;;
55314;SDS011;41619;42.816;23.226;2022-10-16T05:37:06;34.20;;;15.10;;
55314;SDS011;41619;42.816;23.226;2022-10-16T05:39:32;50.40;;;29.00;;
55314;SDS011;41619;42.816;23.226;2022-10-16T05:41:57;29.63;;;16.33;;
55314;SDS011;41619;42.816;23.226;2022-10-16T05:44:23;23.63;;;13.07;;
55314;SDS011;41619;42.816;23.226;2022-10-16T05:46:48;22.77;;;12.98;;
55314;SDS011;41619;42.816;23.226;2022-10-16T05:49:13;28.80;;;14.27;;
55314;SDS011;41619;42.816;23.226;2022-10-16T05:51:39;26.30;;;15.73;;
55314;SDS011;41619;42.816;23.226;2022-10-16T05:54:04;24.23;;;13.50;;
55314;SDS011;41619;42.816;23.226;2022-10-16T05:56:30;21.00;;;11.88;;
55314;SDS011;41619;42.816;23.226;2022-10-16T05:58:56;33.45;;;21.00;;
55314;SDS011;41619;42.816;23.226;2022-10-16T06:01:21;19.63;;;11.65;;
55314;SDS011;41619;42.816;23.226;2022-10-16T06:03:49;22.25;;;10.20;;
55314;SDS011;41619;42.816;23.226;2022-10-16T06:06:21;22.52;;;11.15;;
55314;SDS011;41619;42.816;23.226;2022-10-16T06:08:49;19.40;;;10.15;;
55314;SDS011;41619;42.816;23.226;2022-10-16T06:11:21;19.60;;;10.70;;
55314;SDS011;41619;42.816;23.226;2022-10-16T06:13:53;20.92;;;11.77;;
55314;SDS011;41619;42.816;23.226;2022-10-16T06:16:21;28.17;;;12.70;;
55314;SDS011;41619;42.816;23.226;2022-10-16T06:18:48;18.30;;;11.40;;
55314;SDS011;41619;42.816;23.226;2022-10-16T06:21:16;20.90;;;11.65;;
55314;SDS011;41619;42.816;23.226;2022-10-16T06:23:44;19.07;;;10.97;;
55314;SDS011;41619;42.816;23.226;2022-10-16T06:26:12;31.98;;;11.02;;
55314;SDS011;41619;42.816;23.226;2022-10-16T06:28:39;18.30;;;9.03;;
55314;SDS011;41619;42.816;23.226;2022-10-16T06:31:05;17.15;;;8.30;;
55314;SDS011;41619;42.816;23.226;2022-10-16T06:33:32;17.00;;;8.13;;
55314;SDS011;41619;42.816;23.226;2022-10-16T06:36:02;11.55;;;7.20;;
55314;SDS011;41619;42.816;23.226;2022-10-16T06:38:28;14.50;;;7.07;;
55314;SDS011;41619;42.816;23.226;2022-10-16T06:40:54;14.18;;;7.95;;
55314;SDS011;41619;42.816;23.226;2022-10-16T06:43:19;11.10;;;8.27;;
55314;SDS011;41619;42.816;23.226;2022-10-16T06:45:54;16.85;;;8.43;;
55314;SDS011;41619;42.816;23.226;2022-10-16T06:48:21;11.57;;;6.95;;
55314;SDS011;41619;42.816;23.226;2022-10-16T06:51:21;14.68;;;7.35;;
55314;SDS011;41619;42.816;23.226;2022-10-16T06:53:48;12.02;;;7.38;;
55314;SDS011;41619;42.816;23.226;2022-10-16T06:56:16;11.70;;;6.97;;
55314;SDS011;41619;42.816;23.226;2022-10-16T06:58:43;10.90;;;6.10;;
55314;SDS011;41619;42.816;23.226;2022-10-16T07:01:10;11.32;;;6.25;;
55314;SDS011;41619;42.816;23.226;2022-10-16T07:03:37;10.45;;;5.75;;
55314;SDS011;41619;42.816;23.226;2022-10-16T07:06:04;12.75;;;8.30;;
55314;SDS011;41619;42.816;23.226;2022-10-16T07:08:34;12.00;;;5.07;;
55314;SDS011;41619;42.816;23.226;2022-10-16T07:11:01;7.68;;;4.97;;
55314;SDS011;41619;42.816;23.226;2022-10-16T07:13:28;10.90;;;5.10;;
55314;SDS011;41619;42.816;23.226;2022-10-16T07:15:54;23.50;;;11.20;;
55314;SDS011;41619;42.816;23.226;2022-10-16T07:18:19;54.80;;;25.42;;
55314;SDS011;41619;42.816;23.226;2022-10-16T07:20:45;8.10;;;4.85;;
55314;SDS011;41619;42.816;23.226;2022-10-16T07:23:10;7.35;;;4.05;;
55314;SDS011;41619;42.816;23.226;2022-10-16T07:25:35;6.45;;;4.07;;
55314;SDS011;41619;42.816;23.226;2022-10-16T07:28:01;6.10;;;4.70;;
55314;SDS011;41619;42.816;23.226;2022-10-16T07:30:26;8.40;;;4.38;;
55314;SDS011;41619;42.816;23.226;2022-10-16T07:32:51;23.80;;;5.97;;
55314;SDS011;41619;42.816;23.226;2022-10-16T07:35:17;14.77;;;3.65;;
55314;SDS011;41619;42.816;23.226;2022-10-16T07:37:46;14.70;;;4.47;;
55314;SDS011;41619;42.816;23.226;2022-10-16T07:40:12;7.68;;;3.75;;
55314;SDS011;41619;42.816;23.226;2022-10-16T07:42:37;8.05;;;3.67;;
55314;SDS011;41619;42.816;23.226;2022-10-16T07:45:03;9.70;;;3.10;;
55314;SDS011;41619;42.816;23.226;2022-10-16T07:47:29;6.78;;;3.35;;
55314;SDS011;41619;42.816;23.226;2022-10-16T07:49:54;7.90;;;3.50;;
55314;SDS011;41619;42.816;23.226;2022-10-16T07:52:19;12.10;;;3.75;;
55314;SDS011;41619;42.816;23.226;2022-10-16T07:54:45;6.35;;;4.03;;
55314;SDS011;41619;42.816;23.226;2022-10-16T07:57:10;7.70;;;3.75;;
55314;SDS011;41619;42.816;23.226;2022-10-16T07:59:36;7.75;;;3.78;;
55314;SDS011;41619;42.816;23.226;2022-10-16T08:02:01;5.55;;;3.63;;
55314;SDS011;41619;42.816;23.226;2022-10-16T08:04:26;9.13;;;3.50;;
55314;SDS011;41619;42.816;23.226;2022-10-16T08:06:52;6.90;;;4.15;;
55314;SDS011;41619;42.816;23.226;2022-10-16T08:09:19;5.30;;;3.13;;
55314;SDS011;41619;42.816;23.226;2022-10-16T08:11:44;8.82;;;5.13;;
55314;SDS011;41619;42.816;23.226;2022-10-16T08:14:09;15.57;;;7.72;;
55314;SDS011;41619;42.816;23.226;2022-10-16T08:16:35;12.10;;;5.85;;
55314;SDS011;41619;42.816;23.226;2022-10-16T08:19:00;8.80;;;3.80;;
55314;SDS011;41619;42.816;23.226;2022-10-16T08:21:26;7.05;;;3.70;;
55314;SDS011;41619;42.816;23.226;2022-10-16T08:23:52;6.85;;;4.20;;
55314;SDS011;41619;42.816;23.226;2022-10-16T08:26:18;10.93;;;5.88;;
55314;SDS011;41619;42.816;23.226;2022-10-16T08:28:44;17.85;;;4.85;;
55314;SDS011;41619;42.816;23.226;2022-10-16T08:33:37;8.13;;;3.90;;
55314;SDS011;41619;42.816;23.226;2022-10-16T08:36:04;7.90;;;4.72;;
55314;SDS011;41619;42.816;23.226;2022-10-16T08:38:31;9.55;;;5.00;;
55314;SDS011;41619;42.816;23.226;2022-10-16T08:41:00;9.90;;;5.28;;
55314;SDS011;41619;42.816;23.226;2022-10-16T08:43:53;7.47;;;4.13;;
55314;SDS011;41619;42.816;23.226;2022-10-16T08:49:12;9.82;;;4.75;;
55314;SDS011;41619;42.816;23.226;2022-10-16T08:51:39;13.70;;;5.75;;
55314;SDS011;41619;42.816;23.226;2022-10-16T08:56:36;7.45;;;5.95;;
55314;SDS011;41619;42.816;23.226;2022-10-16T08:59:09;11.55;;;6.75;;
55314;SDS011;41619;42.816;23.226;2022-10-16T09:01:41;10.30;;;6.78;;
55314;SDS011;41619;42.816;23.226;2022-10-16T09:16:01;9.35;;;5.85;;
55314;SDS011;41619;42.816;23.226;2022-10-16T09:21:49;10.90;;;5.78;;
55314;SDS011;41619;42.816;23.226;2022-10-16T09:24:16;12.75;;;6.15;;
55314;SDS011;41619;42.816;23.226;2022-10-16T09:26:44;10.98;;;5.85;;
55314;SDS011;41619;42.816;23.226;2022-10-16T09:29:13;7.95;;;5.10;;
55314;SDS011;41619;42.816;23.226;2022-10-16T09:31:40;7.35;;;5.18;;
55314;SDS011;41619;42.816;23.226;2022-10-16T09:34:08;8.68;;;5.00;;
55314;SDS011;41619;42.816;23.226;2022-10-16T09:36:48;14.93;;;5.72;;
55314;SDS011;41619;42.816;23.226;2022-10-16T09:39:14;11.77;;;4.93;;
55314;SDS011;41619;42.816;23.226;2022-10-16T09:41:40;7.90;;;4.63;;
55314;SDS011;41619;42.816;23.226;2022-10-16T09:44:22;12.45;;;4.30;;
55314;SDS011;41619;42.816;23.226;2022-10-16T09:47:00;5.60;;;3.83;;
55314;SDS011;41619;42.816;23.226;2022-10-16T09:49:29;9.60;;;3.78;;
55314;SDS011;41619;42.816;23.226;2022-10-16T09:52:12;6.57;;;3.63;;
55314;SDS011;41619;42.816;23.226;2022-10-16T09:54:53;4.38;;;3.00;;
55314;SDS011;41619;42.816;23.226;2022-10-16T09:57:20;5.40;;;3.30;;
55314;SDS011;41619;42.816;23.226;2022-10-16T09:59:53;4.07;;;2.92;;
55314;SDS011;41619;42.816;23.226;2022-10-16T10:02:26;6.05;;;3.60;;
55314;SDS011;41619;42.816;23.226;2022-10-16T10:04:55;9.15;;;3.70;;
55314;SDS011;41619;42.816;23.226;2022-10-16T10:07:31;11.40;;;3.53;;
55314;SDS011;41619;42.816;23.226;2022-10-16T10:09:59;6.85;;;3.05;;
55314;SDS011;41619;42.816;23.226;2022-10-16T10:12:30;7.93;;;3.10;;
55314;SDS011;41619;42.816;23.226;2022-10-16T10:20:15;5.45;;;3.50;;
55314;SDS011;41619;42.816;23.226;2022-10-16T10:22:48;4.60;;;3.67;;
55314;SDS011;41619;42.816;23.226;2022-10-16T10:25:15;6.00;;;3.30;;
55314;SDS011;41619;42.816;23.226;2022-10-16T10:27:55;7.80;;;3.17;;
55314;SDS011;41619;42.816;23.226;2022-10-16T10:57:02;5.20;;;3.50;;
55314;SDS011;41619;42.816;23.226;2022-10-16T10:59:49;8.95;;;3.38;;
55314;SDS011;41619;42.816;23.226;2022-10-16T11:08:00;6.68;;;3.58;;
55314;SDS011;41619;42.816;23.226;2022-10-16T11:10:44;7.80;;;3.28;;
55314;SDS011;41619;42.816;23.226;2022-10-16T11:13:21;4.53;;;3.13;;
55314;SDS011;41619;42.816;23.226;2022-10-16T11:15:50;4.68;;;3.05;;
55314;SDS011;41619;42.816;23.226;2022-10-16T11:18:27;11.43;;;3.30;;
55314;SDS011;41619;42.816;23.226;2022-10-16T11:21:09;7.43;;;3.20;;
55314;SDS011;41619;42.816;23.226;2022-10-16T11:23:55;5.13;;;2.90;;
55314;SDS011;41619;42.816;23.226;2022-10-16T11:26:30;7.90;;;2.85;;
55314;SDS011;41619;42.816;23.226;2022-10-16T11:28:59;6.07;;;3.08;;
55314;SDS011;41619;42.816;23.226;2022-10-16T11:31:37;4.53;;;3.58;;
55314;SDS011;41619;42.816;23.226;2022-10-16T11:34:09;5.18;;;3.10;;
55314;SDS011;41619;42.816;23.226;2022-10-16T11:36:50;8.32;;;3.55;;
55314;SDS011;41619;42.816;23.226;2022-10-16T11:42:04;5.05;;;3.15;;
55314;SDS011;41619;42.816;23.226;2022-10-16T11:49:30;7.32;;;3.00;;
55314;SDS011;41619;42.816;23.226;2022-10-16T11:57:43;3.25;;;2.78;;
55314;SDS011;41619;42.816;23.226;2022-10-16T12:00:23;6.10;;;2.85;;
55314;SDS011;41619;42.816;23.226;2022-10-16T12:02:57;6.22;;;3.08;;
55314;SDS011;41619;42.816;23.226;2022-10-16T12:05:28;4.47;;;2.78;;
55314;SDS011;41619;42.816;23.226;2022-10-16T12:08:08;4.18;;;2.53;;
55314;SDS011;41619;42.816;23.226;2022-10-16T12:10:36;4.57;;;2.90;;
55314;SDS011;41619;42.816;23.226;2022-10-16T12:13:04;5.63;;;2.92;;
55314;SDS011;41619;42.816;23.226;2022-10-16T12:15:50;6.30;;;2.90;;
55314;SDS011;41619;42.816;23.226;2022-10-16T12:18:22;3.83;;;2.90;;
55314;SDS011;41619;42.816;23.226;2022-10-16T12:20:56;5.13;;;3.00;;
55314;SDS011;41619;42.816;23.226;2022-10-16T12:23:23;5.68;;;3.58;;
55314;SDS011;41619;42.816;23.226;2022-10-16T12:25:57;50.78;;;35.28;;
55314;SDS011;41619;42.816;23.226;2022-10-16T12:28:27;6.60;;;3.92;;
55314;SDS011;41619;42.816;23.226;2022-10-16T12:31:02;6.88;;;3.95;;
55314;SDS011;41619;42.816;23.226;2022-10-16T12:33:34;14.25;;;5.93;;
55314;SDS011;41619;42.816;23.226;2022-10-16T12:36:45;5.10;;;2.20;;
55314;SDS011;41619;42.816;23.226;2022-10-16T12:38:59;4.88;;;2.63;;
55314;SDS011;41619;42.816;23.226;2022-10-16T12:43:52;2.90;;;1.80;;
55314;SDS011;41619;42.816;23.226;2022-10-16T12:46:21;6.30;;;1.73;;
55314;SDS011;41619;42.816;23.226;2022-10-16T12:48:48;5.57;;;1.52;;
55314;SDS011;41619;42.816;23.226;2022-10-16T13:08:01;3.38;;;1.88;;
55314;SDS011;41619;42.816;23.226;2022-10-16T13:19:06;3.50;;;2.15;;
55314;SDS011;41619;42.816;23.226;2022-10-16T13:29:30;2.90;;;2.00;;
55314;SDS011;41619;42.816;23.226;2022-10-16T13:31:57;4.88;;;2.30;;
55314;SDS011;41619;42.816;23.226;2022-10-16T13:34:25;5.13;;;2.40;;
55314;SDS011;41619;42.816;23.226;2022-10-16T13:36:52;3.67;;;2.40;;
55314;SDS011;41619;42.816;23.226;2022-10-16T13:39:23;2.25;;;2.05;;
55314;SDS011;41619;42.816;23.226;2022-10-16T13:42:03;7.55;;;2.28;;
55314;SDS011;41619;42.816;23.226;2022-10-16T13:44:35;5.50;;;2.13;;
55314;SDS011;41619;42.816;23.226;2022-10-16T13:47:04;6.15;;;2.42;;
55314;SDS011;41619;42.816;23.226;2022-10-16T13:49:30;3.67;;;2.03;;
55314;SDS011;41619;42.816;23.226;2022-10-16T13:51:56;10.38;;;2.00;;
55314;SDS011;41619;42.816;23.226;2022-10-16T13:54:23;3.00;;;2.20;;
55314;SDS011;41619;42.816;23.226;2022-10-16T13:56:50;5.80;;;2.08;;
55314;SDS011;41619;42.816;23.226;2022-10-16T13:59:34;3.20;;;2.33;;
55314;SDS011;41619;42.816;23.226;2022-10-16T14:02:05;5.18;;;2.22;;
55314;SDS011;41619;42.816;23.226;2022-10-16T14:04:42;5.72;;;2.03;;
55314;SDS011;41619;42.816;23.226;2022-10-16T14:07:12;4.28;;;2.20;;
55314;SDS011;41619;42.816;23.226;2022-10-16T14:09:41;3.78;;;2.58;;
55314;SDS011;41619;42.816;23.226;2022-10-16T14:12:08;4.38;;;2.60;;
55314;SDS011;41619;42.816;23.226;2022-10-16T14:14:41;5.20;;;2.67;;
55314;SDS011;41619;42.816;23.226;2022-10-16T14:19:44;6.93;;;2.92;;
55314;SDS011;41619;42.816;23.226;2022-10-16T14:24:59;5.38;;;3.03;;
55314;SDS011;41619;42.816;23.226;2022-10-16T14:27:29;4.80;;;2.70;;
55314;SDS011;41619;42.816;23.226;2022-10-16T14:30:09;6.70;;;3.08;;
55314;SDS011;41619;42.816;23.226;2022-10-16T14:35:21;5.65;;;2.85;;
55314;SDS011;41619;42.816;23.226;2022-10-16T14:37:52;11.57;;;2.70;;
55314;SDS011;41619;42.816;23.226;2022-10-16T14:40:19;4.80;;;3.70;;
55314;SDS011;41619;42.816;23.226;2022-10-16T14:42:48;10.05;;;3.35;;
55314;SDS011;41619;42.816;23.226;2022-10-16T14:45:15;4.57;;;3.20;;
55314;SDS011;41619;42.816;23.226;2022-10-16T14:47:49;7.40;;;3.25;;
55314;SDS011;41619;42.816;23.226;2022-10-16T14:50:17;5.13;;;3.05;;
55314;SDS011;41619;42.816;23.226;2022-10-16T14:52:42;5.40;;;3.10;;
55314;SDS011;41619;42.816;23.226;2022-10-16T14:55:09;4.40;;;3.03;;
55314;SDS011;41619;42.816;23.226;2022-10-16T14:57:36;10.80;;;4.70;;
55314;SDS011;41619;42.816;23.226;2022-10-16T15:00:04;14.05;;;8.25;;
55314;SDS011;41619;42.816;23.226;2022-10-16T15:02:40;17.35;;;9.27;;
55314;SDS011;41619;42.816;23.226;2022-10-16T15:05:25;9.35;;;5.55;;
55314;SDS011;41619;42.816;23.226;2022-10-16T15:07:55;8.23;;;5.32;;
55314;SDS011;41619;42.816;23.226;2022-10-16T15:10:21;9.82;;;6.10;;
55314;SDS011;41619;42.816;23.226;2022-10-16T15:12:48;30.73;;;8.98;;
55314;SDS011;41619;42.816;23.226;2022-10-16T15:18:14;10.00;;;5.28;;
55314;SDS011;41619;42.816;23.226;2022-10-16T15:20:44;17.17;;;9.40;;
55314;SDS011;41619;42.816;23.226;2022-10-16T15:23:14;24.48;;;7.57;;
55314;SDS011;41619;42.816;23.226;2022-10-16T15:25:45;12.18;;;6.03;;
55314;SDS011;41619;42.816;23.226;2022-10-16T15:28:18;9.13;;;4.10;;
55314;SDS011;41619;42.816;23.226;2022-10-16T15:30:45;12.23;;;6.13;;
55314;SDS011;41619;42.816;23.226;2022-10-16T15:33:12;18.85;;;10.85;;
55314;SDS011;41619;42.816;23.226;2022-10-16T15:35:42;13.05;;;8.43;;
55314;SDS011;41619;42.816;23.226;2022-10-16T15:38:11;14.57;;;6.95;;
55314;SDS011;41619;42.816;23.226;2022-10-16T15:40:38;9.20;;;6.43;;
55314;SDS011;41619;42.816;23.226;2022-10-16T15:43:03;11.77;;;7.93;;
55314;SDS011;41619;42.816;23.226;2022-10-16T15:45:29;14.52;;;9.90;;
55314;SDS011;41619;42.816;23.226;2022-10-16T15:47:54;13.35;;;8.63;;
55314;SDS011;41619;42.816;23.226;2022-10-16T15:50:19;24.30;;;6.00;;
55314;SDS011;41619;42.816;23.226;2022-10-16T15:52:45;14.43;;;6.25;;
55314;SDS011;41619;42.816;23.226;2022-10-16T15:55:11;12.50;;;6.07;;
55314;SDS011;41619;42.816;23.226;2022-10-16T15:57:38;14.82;;;6.97;;
55314;SDS011;41619;42.816;23.226;2022-10-16T16:00:10;17.65;;;8.18;;
55314;SDS011;41619;42.816;23.226;2022-10-16T16:02:40;14.10;;;6.65;;
55314;SDS011;41619;42.816;23.226;2022-10-16T16:05:07;29.45;;;6.72;;
55314;SDS011;41619;42.816;23.226;2022-10-16T16:07:34;9.68;;;5.75;;
55314;SDS011;41619;42.816;23.226;2022-10-16T16:10:00;9.82;;;6.00;;
55314;SDS011;41619;42.816;23.226;2022-10-16T16:12:27;36.47;;;17.98;;
55314;SDS011;41619;42.816;23.226;2022-10-16T16:14:52;17.33;;;10.27;;
55314;SDS011;41619;42.816;23.226;2022-10-16T16:17:17;24.40;;;9.75;;
55314;SDS011;41619;42.816;23.226;2022-10-16T16:19:43;12.63;;;6.82;;
55314;SDS011;41619;42.816;23.226;2022-10-16T16:22:08;18.70;;;10.00;;
55314;SDS011;41619;42.816;23.226;2022-10-16T16:24:34;16.45;;;8.43;;
55314;SDS011;41619;42.816;23.226;2022-10-16T16:26:59;16.60;;;8.07;;
55314;SDS011;41619;42.816;23.226;2022-10-16T16:29:24;16.80;;;7.15;;
55314;SDS011;41619;42.816;23.226;2022-10-16T16:31:50;21.50;;;7.22;;
55314;SDS011;41619;42.816;23.226;2022-10-16T16:34:21;32.75;;;13.15;;
55314;SDS011;41619;42.816;23.226;2022-10-16T16:36:47;37.47;;;13.65;;
55314;SDS011;41619;42.816;23.226;2022-10-16T16:39:13;34.25;;;14.35;;
55314;SDS011;41619;42.816;23.226;2022-10-16T16:41:38;11.13;;;6.47;;
55314;SDS011;41619;42.816;23.226;2022-10-16T16:44:04;10.00;;;5.70;;
55314;SDS011;41619;42.816;23.226;2022-10-16T16:46:32;16.98;;;8.57;;